Time;durP1;ratioP1;P1;durP2;ratioP2;P2;SDS_P1;SDS_P2;PMS_P1;PMS_P2;Temp;Humidity;BMP_temperature;BMP_pressure;BME280_temperature;BME280_humidity;BME280_pressure;Samples;Min_cycle;Max_cycle;Signal;HPM_P1;HPM_P2
2022/10/09 00:00:47;;;;;;;28.77;11.78;;;;;;;4.27;100.00;100531.37;1787519;80;21046;-63
2022/10/09 00:03:14;;;;;;;26.77;12.35;;;;;;;4.23;100.00;100521.82;1787659;80;20995;-64
2022/10/09 00:05:44;;;;;;;30.97;13.13;;;;;;;4.20;100.00;100522.71;1787610;79;21090;-64
2022/10/09 00:08:10;;;;;;;23.10;12.58;;;;;;;4.17;100.00;100514.05;1788008;80;21046;-64
2022/10/09 00:10:42;;;;;;;28.45;11.90;;;;;;;4.17;100.00;100516.66;1787729;79;21093;-65
2022/10/09 00:13:11;;;;;;;25.23;10.88;;;;;;;4.16;100.00;100514.91;1788026;79;21018;-64
2022/10/09 00:15:41;;;;;;;20.40;10.53;;;;;;;4.10;100.00;100512.35;1788012;79;21042;-64
2022/10/09 00:18:12;;;;;;;24.95;11.83;;;;;;;4.10;100.00;100513.66;1787604;79;21081;-64
2022/10/09 00:20:42;;;;;;;24.67;11.25;;;;;;;4.08;100.00;100501.06;1787911;80;21126;-65
2022/10/09 00:23:09;;;;;;;32.45;12.25;;;;;;;4.06;100.00;100500.20;1787969;79;21082;-65
2022/10/09 00:25:36;;;;;;;26.17;11.45;;;;;;;4.06;100.00;100500.20;1787398;80;21000;-63
2022/10/09 00:28:03;;;;;;;28.10;12.10;;;;;;;4.03;100.00;100495.02;1787459;80;21173;-64
2022/10/09 00:30:30;;;;;;;26.10;11.85;;;;;;;4.03;100.00;100492.41;1787455;80;21101;-64
2022/10/09 00:32:57;;;;;;;29.75;11.53;;;;;;;4.01;100.00;100492.84;1787633;79;21625;-63
2022/10/09 00:35:24;;;;;;;29.25;10.78;;;;;;;3.98;100.00;100488.08;1787413;80;22150;-64
2022/10/09 00:37:50;;;;;;;27.02;11.30;;;;;;;3.97;100.00;100486.32;1787648;80;21550;-64
2022/10/09 00:40:17;;;;;;;35.00;12.23;;;;;;;3.98;100.00;100482.00;1787834;80;21047;-64
2022/10/09 00:42:44;;;;;;;41.73;11.88;;;;;;;3.94;100.00;100481.14;1787402;79;21030;-64
2022/10/09 00:45:18;;;;;;;24.65;11.78;;;;;;;3.94;100.00;100483.73;1787589;78;21079;-63
2022/10/09 00:47:49;;;;;;;25.50;11.83;;;;;;;3.93;100.00;100476.81;1786977;80;21159;-64
2022/10/09 00:50:23;;;;;;;24.50;11.53;;;;;;;3.91;100.00;100473.34;1786730;80;22100;-64
2022/10/09 00:52:54;;;;;;;26.60;12.20;;;;;;;3.85;100.00;100468.14;1785774;80;21102;-64
2022/10/09 00:55:21;;;;;;;23.92;10.80;;;;;;;3.83;100.00;100469.89;1758078;80;21601;-68
2022/10/09 00:57:49;;;;;;;19.42;10.72;;;;;;;3.78;100.00;100462.53;1783068;80;21068;-62
2022/10/09 01:00:17;;;;;;;22.65;10.82;;;;;;;3.76;100.00;100462.97;1783329;80;21241;-64
2022/10/09 01:02:44;;;;;;;34.98;11.53;;;;;;;3.76;100.00;100465.13;1784479;80;21060;-64
2022/10/09 01:05:11;;;;;;;24.23;11.05;;;;;;;3.76;100.00;100466.88;1784512;80;21064;-65
2022/10/09 01:07:59;;;;;;;19.62;11.33;;;;;;;3.76;100.00;100461.67;1784870;80;21032;-62
2022/10/09 01:10:43;;;;;;;26.87;11.38;;;;;;;3.73;100.00;100462.99;1784941;80;21551;-64
2022/10/09 01:13:27;;;;;;;26.42;12.45;;;;;;;3.71;100.00;100455.62;1784016;79;21043;-63
2022/10/09 01:16:01;;;;;;;24.40;10.78;;;;;;;3.70;100.00;100455.17;1784821;80;20941;-64
2022/10/09 01:18:44;;;;;;;21.70;10.32;;;;;;;3.69;100.00;100453.45;1784935;80;21056;-63
2022/10/09 01:21:18;;;;;;;16.75;8.98;;;;;;;3.70;100.00;100455.17;1784971;80;21476;-66
2022/10/09 01:24:12;;;;;;;22.05;11.93;;;;;;;3.70;100.00;100449.96;1785260;80;21551;-63
2022/10/09 01:27:02;;;;;;;25.37;11.73;;;;;;;3.71;100.00;100453.87;1764175;80;22153;-64
2022/10/09 01:29:33;;;;;;;22.75;11.38;;;;;;;3.68;100.00;100452.59;1741670;82;21103;-63
2022/10/09 01:32:00;;;;;;;26.52;11.68;;;;;;;3.66;100.00;100446.52;1784720;80;21043;-65
2022/10/09 01:34:26;;;;;;;28.10;11.33;;;;;;;3.66;100.00;100445.62;1784841;80;20983;-63
2022/10/09 01:36:52;;;;;;;29.27;10.20;;;;;;;3.63;100.00;100440.44;1785003;80;21028;-64
2022/10/09 01:39:20;;;;;;;21.57;10.43;;;;;;;3.61;100.00;100452.59;1784828;80;21520;-66
2022/10/09 01:41:47;;;;;;;24.12;10.48;;;;;;;3.58;100.00;100443.92;1784965;80;21516;-65
2022/10/09 01:44:20;;;;;;;27.02;11.48;;;;;;;3.60;100.00;100444.37;1784839;80;21034;-64
2022/10/09 01:46:46;;;;;;;16.45;9.53;;;;;;;3.58;100.00;100440.45;1785013;79;21027;-64
2022/10/09 01:49:55;;;;;;;22.80;10.85;;;;;;;3.57;100.00;100445.25;1784814;79;20999;-64
2022/10/09 01:52:33;;;;;;;24.32;11.57;;;;;;;3.58;100.00;100448.27;1784868;79;21094;-64
2022/10/09 01:55:06;;;;;;;23.30;11.12;;;;;;;3.56;100.00;100451.31;1785002;79;21111;-63
2022/10/09 01:58:12;;;;;;;26.90;10.80;;;;;;;3.55;100.00;100449.15;1787470;80;21570;-64
2022/10/09 02:00:44;;;;;;;17.17;9.50;;;;;;;3.56;100.00;100444.80;1795358;79;21024;-63
2022/10/09 02:03:12;;;;;;;21.60;10.25;;;;;;;3.51;100.00;100444.81;1817501;78;21117;-63
2022/10/09 02:05:41;;;;;;;25.88;11.68;;;;;;;3.49;100.00;100440.05;1817500;79;21039;-62
2022/10/09 02:08:10;;;;;;;19.32;10.03;;;;;;;3.48;100.00;100442.23;1817314;79;21011;-66
2022/10/09 02:10:38;;;;;;;28.55;11.48;;;;;;;3.45;100.00;100440.95;1817205;79;21567;-65
2022/10/09 02:13:07;;;;;;;20.55;11.38;;;;;;;3.42;100.00;100442.23;1817011;79;21055;-63
2022/10/09 02:15:45;;;;;;;23.90;11.53;;;;;;;3.42;100.00;100438.33;1817120;79;21118;-64
2022/10/09 02:18:13;;;;;;;35.90;11.70;;;;;;;3.42;100.00;100434.42;1817177;79;21277;-63
2022/10/09 02:20:44;;;;;;;27.00;11.70;;;;;;;3.43;100.00;100438.78;1817190;78;21039;-63
2022/10/09 02:23:11;;;;;;;25.27;11.90;;;;;;;3.44;100.00;100431.39;1817139;79;21134;-63
2022/10/09 02:25:38;;;;;;;30.20;11.57;;;;;;;3.43;100.00;100438.78;1817138;79;21075;-63
2022/10/09 02:28:06;;;;;;;28.12;11.55;;;;;;;3.40;100.00;100441.38;1817153;79;21000;-64
2022/10/09 02:30:47;;;;;;;24.40;12.05;;;;;;;3.36;100.00;100452.69;1817179;79;21758;-63
2022/10/09 02:33:14;;;;;;;23.22;10.55;;;;;;;3.32;100.00;100449.66;1817303;79;21035;-64
2022/10/09 02:35:42;;;;;;;27.75;11.70;;;;;;;3.28;100.00;100447.92;1817218;79;21012;-64
2022/10/09 02:38:08;;;;;;;17.95;10.35;;;;;;;3.26;100.00;100453.56;1817288;79;21020;-64
2022/10/09 02:40:35;;;;;;;23.18;9.90;;;;;;;3.25;100.00;100446.64;1817279;79;21013;-64
2022/10/09 02:43:02;;;;;;;18.73;10.18;;;;;;;3.22;100.00;100447.52;1817143;79;21194;-64
2022/10/09 02:45:28;;;;;;;33.28;12.33;;;;;;;3.24;100.00;100446.19;1817088;77;21059;-64
2022/10/09 02:47:56;;;;;;;20.52;10.38;;;;;;;3.21;100.00;100442.30;1817269;79;21047;-63
2022/10/09 02:50:22;;;;;;;28.05;12.63;;;;;;;3.21;100.00;100445.77;1817059;79;22374;-64
2022/10/09 02:52:49;;;;;;;31.15;12.78;;;;;;;3.20;100.00;100440.55;1817277;79;21059;-63
2022/10/09 02:55:16;;;;;;;25.37;13.35;;;;;;;3.18;100.00;100439.72;1816639;78;21273;-64
2022/10/09 02:57:42;;;;;;;26.82;13.50;;;;;;;3.16;100.00;100439.70;1809150;79;21009;-63
2022/10/09 03:00:12;;;;;;;30.30;15.00;;;;;;;3.10;100.00;100440.56;1808966;79;21028;-64
2022/10/09 03:02:39;;;;;;;28.45;15.72;;;;;;;3.09;100.00;100440.15;1809315;79;21009;-63
2022/10/09 03:05:07;;;;;;;41.33;17.75;;;;;;;3.07;100.00;100434.52;1809343;79;21052;-64
2022/10/09 03:07:34;;;;;;;35.25;17.70;;;;;;;3.05;100.00;100426.70;1809392;79;21748;-63
2022/10/09 03:10:00;;;;;;;44.05;18.12;;;;;;;3.02;100.00;100424.12;1808914;79;21584;-64
2022/10/09 03:12:27;;;;;;;37.63;18.48;;;;;;;3.03;100.00;100432.78;1809046;79;21020;-63
2022/10/09 03:14:54;;;;;;;36.93;18.33;;;;;;;3.00;100.00;100423.25;1809006;79;21107;-63
2022/10/09 03:17:21;;;;;;;35.40;17.92;;;;;;;2.99;100.00;100421.94;1809354;79;21012;-63
2022/10/09 03:19:48;;;;;;;32.65;17.10;;;;;;;3.01;100.00;100422.37;1809350;79;22095;-63
2022/10/09 03:22:15;;;;;;;45.48;18.57;;;;;;;3.02;100.00;100420.22;1809429;79;21000;-64
2022/10/09 03:24:41;;;;;;;29.72;14.38;;;;;;;2.98;100.00;100417.18;1809259;79;20990;-64
2022/10/09 03:27:09;;;;;;;28.20;13.95;;;;;;;2.97;100.00;100418.06;1809288;79;21080;-63
2022/10/09 03:29:36;;;;;;;37.55;15.30;;;;;;;2.93;100.00;100415.88;1809412;79;21021;-63
2022/10/09 03:32:03;;;;;;;26.80;13.35;;;;;;;2.93;100.00;100411.13;1809304;79;21328;-64
2022/10/09 03:34:29;;;;;;;31.35;15.08;;;;;;;2.90;100.00;100407.23;1809360;79;21012;-64
2022/10/09 03:36:56;;;;;;;31.02;15.55;;;;;;;2.89;100.00;100405.48;1809444;79;20989;-63
2022/10/09 03:39:22;;;;;;;28.95;14.45;;;;;;;2.88;100.00;100411.13;1809400;79;21052;-64
2022/10/09 03:41:49;;;;;;;29.48;15.38;;;;;;;2.88;100.00;100415.47;1809400;79;21032;-64
2022/10/09 03:44:16;;;;;;;32.93;16.95;;;;;;;2.88;100.00;100408.53;1809443;77;21227;-64
2022/10/09 03:46:42;;;;;;;38.73;17.37;;;;;;;2.89;100.00;100410.69;1809070;79;21064;-64
2022/10/09 03:49:09;;;;;;;35.70;16.62;;;;;;;2.88;100.00;100408.97;1809385;79;20986;-64
2022/10/09 03:51:36;;;;;;;37.00;16.77;;;;;;;2.86;100.00;100404.20;1809246;79;21081;-63
2022/10/09 03:54:02;;;;;;;34.60;17.82;;;;;;;2.86;100.00;100400.30;1809167;79;20997;-64
2022/10/09 03:56:29;;;;;;;33.80;18.00;;;;;;;2.85;100.00;100399.84;1812420;78;21149;-63
2022/10/09 03:58:56;;;;;;;35.70;18.30;;;;;;;2.83;100.00;100396.37;1817202;78;21032;-63
2022/10/09 04:01:22;;;;;;;34.78;17.27;;;;;;;2.83;100.00;100399.87;1817105;79;21016;-64
2022/10/09 04:03:50;;;;;;;34.83;16.70;;;;;;;2.85;100.00;100398.55;1817244;79;21085;-64
2022/10/09 04:06:18;;;;;;;31.15;16.35;;;;;;;2.85;100.00;100394.64;1817261;78;21008;-64
2022/10/09 04:08:46;;;;;;;33.85;16.55;;;;;;;2.84;100.00;100400.73;1817312;78;21758;-64
2022/10/09 04:11:12;;;;;;;30.27;15.75;;;;;;;2.83;100.00;100402.47;1817031;79;21021;-65
2022/10/09 04:13:39;;;;;;;31.17;17.20;;;;;;;2.82;100.00;100402.46;1817135;78;21008;-64
2022/10/09 04:16:08;;;;;;;31.00;14.13;;;;;;;2.83;100.00;100402.87;1817007;79;21004;-63
2022/10/09 04:18:34;;;;;;;23.80;12.70;;;;;;;2.83;100.00;100399.87;1817636;78;21050;-63
2022/10/09 04:21:00;;;;;;;28.45;14.18;;;;;;;2.83;100.00;100399.87;1817316;78;21075;-63
2022/10/09 04:23:27;;;;;;;25.37;15.20;;;;;;;2.84;100.00;100401.59;1817368;78;21063;-63
2022/10/09 04:25:54;;;;;;;34.10;16.05;;;;;;;2.88;100.00;100401.16;1817330;79;21000;-65
2022/10/09 04:28:23;;;;;;;31.37;15.65;;;;;;;2.89;100.00;100401.14;1817295;78;21063;-63
2022/10/09 04:30:50;;;;;;;31.33;15.80;;;;;;;2.91;100.00;100403.75;1817385;79;21032;-64
2022/10/09 04:33:16;;;;;;;39.83;18.02;;;;;;;2.96;100.00;100398.55;1817011;79;21326;-65
2022/10/09 04:35:44;;;;;;;31.50;17.90;;;;;;;2.99;100.00;100399.42;1817138;78;21046;-64
2022/10/09 04:38:11;;;;;;;33.13;18.35;;;;;;;3.03;100.00;100405.02;1817275;79;21096;-63
2022/10/09 04:40:38;;;;;;;37.67;18.82;;;;;;;3.07;100.00;100397.65;1816959;79;21351;-65
2022/10/09 04:43:05;;;;;;;43.80;21.07;;;;;;;3.12;100.00;100406.30;1817036;79;22044;-65
2022/10/09 04:45:32;;;;;;;40.65;20.70;;;;;;;3.17;100.00;100400.23;1792721;77;21163;-65
2022/10/09 04:47:59;;;;;;;41.42;19.40;;;;;;;3.22;100.00;100401.08;1784800;80;20988;-64
2022/10/09 04:50:26;;;;;;;45.60;21.35;;;;;;;3.26;100.00;100401.50;1784940;79;21023;-65
2022/10/09 04:52:58;;;;;;;39.63;20.00;;;;;;;3.35;100.00;100400.17;1784860;80;21035;-64
2022/10/09 04:55:25;;;;;;;39.48;21.07;;;;;;;3.43;100.00;100401.44;1784900;80;21094;-64
2022/10/09 04:57:51;;;;;;;38.58;19.98;;;;;;;3.48;100.00;100408.38;1785169;79;21128;-63
2022/10/09 05:00:18;;;;;;;35.20;18.20;;;;;;;3.58;100.00;100404.86;1784952;80;20961;-64
2022/10/09 05:02:45;;;;;;;32.80;17.77;;;;;;;3.69;100.00;100405.27;1784772;80;21028;-64
2022/10/09 05:05:12;;;;;;;35.98;16.85;;;;;;;3.79;100.00;100410.84;1809565;79;21107;-65
2022/10/09 05:07:38;;;;;;;35.10;20.15;;;;;;;3.91;100.00;100406.89;1817225;78;21055;-64
2022/10/09 05:10:08;;;;;;;53.02;24.37;;;;;;;4.08;100.00;100404.62;1816978;79;21116;-64
2022/10/09 05:12:34;;;;;;;43.58;21.07;;;;;;;4.52;100.00;100406.91;1817189;78;21210;-63
2022/10/09 05:15:01;;;;;;;40.92;21.20;;;;;;;5.25;100.00;100405.37;1817068;79;21550;-67
2022/10/09 05:17:29;;;;;;;48.58;23.98;;;;;;;6.06;100.00;100400.90;1816993;79;21047;-64
2022/10/09 05:19:55;;;;;;;56.08;24.52;;;;;;;6.84;100.00;100393.57;1817037;79;21568;-63
2022/10/09 05:22:23;;;;;;;49.65;23.35;;;;;;;7.56;100.00;100390.88;1816945;78;21089;-64
2022/10/09 05:24:49;;;;;;;75.08;28.95;;;;;;;8.09;100.00;100391.08;1817033;79;20993;-65
2022/10/09 05:27:16;;;;;;;36.70;21.85;;;;;;;8.55;100.00;100389.57;1817011;78;21018;-64
2022/10/09 05:29:43;;;;;;;47.75;24.07;;;;;;;9.15;100.00;100399.00;1817153;79;20969;-65
2022/10/09 05:32:10;;;;;;;44.05;22.93;;;;;;;9.83;100.00;100398.83;1817120;78;21002;-64
2022/10/09 05:34:37;;;;;;;41.20;22.82;;;;;;;10.54;100.00;100394.04;1817585;78;21231;-64
2022/10/09 05:37:04;;;;;;;33.25;20.55;;;;;;;11.34;100.00;100390.84;1817073;79;21025;-65
2022/10/09 05:39:31;;;;;;;43.15;21.82;;;;;;;12.07;100.00;100398.25;1817159;78;21036;-64
2022/10/09 05:41:59;;;;;;;39.13;21.33;;;;;;;12.49;100.00;100389.57;1816878;79;21121;-63
2022/10/09 05:44:26;;;;;;;40.15;20.65;;;;;;;12.95;100.00;100393.37;1807412;79;21506;-65
2022/10/09 05:46:53;;;;;;;31.35;18.45;;;;;;;13.26;100.00;100393.39;1785064;80;21106;-66
2022/10/09 05:49:20;;;;;;;40.63;18.95;;;;;;;13.49;100.00;100397.69;1784962;80;21546;-65
2022/10/09 05:51:48;;;;;;;38.58;18.92;;;;;;;13.87;100.00;100394.59;1784952;79;21040;-65
2022/10/09 05:54:16;;;;;;;36.05;18.42;;;;;;;14.31;100.00;100392.98;1785206;80;21009;-66
2022/10/09 05:56:43;;;;;;;28.23;16.12;;;;;;;14.88;100.00;100396.37;1784795;80;21071;-65
2022/10/09 05:59:18;;;;;;;25.97;14.43;;;;;;;15.50;96.35;100394.49;1784942;80;21113;-66
2022/10/09 06:01:47;;;;;;;24.47;14.13;;;;;;;16.03;83.88;100392.08;1784694;80;21010;-65
2022/10/09 06:04:21;;;;;;;64.17;33.63;;;;;;;16.64;77.55;100395.72;1785103;80;21026;-64
2022/10/09 06:06:48;;;;;;;138.05;79.45;;;;;;;17.10;71.32;100397.52;1784645;79;21078;-66
2022/10/09 06:09:16;;;;;;;91.87;46.05;;;;;;;17.47;65.29;100397.46;1784964;80;21031;-67
2022/10/09 06:11:45;;;;;;;27.87;15.32;;;;;;;17.65;60.83;100398.14;1784908;79;21066;-65
2022/10/09 06:14:12;;;;;;;21.82;13.60;;;;;;;17.76;59.34;100395.66;1785059;80;20975;-65
2022/10/09 06:16:41;;;;;;;20.65;13.05;;;;;;;17.85;59.22;100396.05;1784891;80;21090;-65
2022/10/09 06:19:11;;;;;;;18.57;12.80;;;;;;;17.81;57.45;100398.92;1785169;79;21304;-65
2022/10/09 06:21:38;;;;;;;31.25;13.38;;;;;;;17.90;58.02;100395.28;1784772;79;21038;-65
2022/10/09 06:24:05;;;;;;;19.82;12.73;;;;;;;17.96;58.20;100390.42;1784890;80;21190;-65
2022/10/09 06:26:33;;;;;;;21.50;12.98;;;;;;;18.10;56.97;100393.53;1784735;80;21055;-64
2022/10/09 06:29:01;;;;;;;21.75;13.35;;;;;;;18.10;55.77;100397.53;1784839;79;20987;-65
2022/10/09 06:31:30;;;;;;;22.48;12.88;;;;;;;18.08;55.85;100399.44;1785029;79;21086;-65
2022/10/09 06:33:59;;;;;;;19.57;12.20;;;;;;;18.11;56.10;100397.92;1785218;80;21073;-65
2022/10/09 06:36:28;;;;;;;18.45;11.65;;;;;;;18.30;55.73;100399.41;1785114;79;21089;-67
2022/10/09 06:38:58;;;;;;;20.80;11.30;;;;;;;18.49;55.09;100401.23;1784755;79;21649;-65
2022/10/09 06:41:26;;;;;;;17.87;11.38;;;;;;;18.78;54.13;100390.48;1785241;79;21062;-65
2022/10/09 06:43:59;;;;;;;16.77;11.55;;;;;;;19.01;53.30;100391.12;1784659;79;21059;-65
2022/10/09 06:46:30;;;;;;;18.32;11.15;;;;;;;19.35;53.71;100384.80;1784959;80;21529;-65
2022/10/09 06:48:58;;;;;;;20.68;11.68;;;;;;;19.84;51.92;100389.86;1784736;80;21857;-65
2022/10/09 06:51:26;;;;;;;18.23;11.00;;;;;;;20.26;50.94;100389.04;1785130;80;21060;-64
2022/10/09 06:53:56;;;;;;;17.37;11.05;;;;;;;20.69;49.50;100384.55;1785173;80;21468;-65
2022/10/09 06:56:24;;;;;;;19.77;11.33;;;;;;;21.01;48.31;100391.47;1784823;80;21000;-65
2022/10/09 07:01:12;;;;;;;19.15;12.10;;;;;;;21.52;46.82;100383.06;1795908;79;22615;-66
2022/10/09 07:03:41;;;;;;;18.20;11.70;;;;;;;21.52;46.92;100386.23;1756693;81;21524;-66
2022/10/09 07:06:18;;;;;;;14.83;10.68;;;;;;;21.75;46.72;100387.09;1756533;81;21125;-66
2022/10/09 07:08:48;;;;;;;16.70;10.32;;;;;;;22.09;44.71;100384.38;1755446;81;20962;-64
2022/10/09 07:11:21;;;;;;;15.03;11.03;;;;;;;22.35;44.47;100376.41;1756813;81;21006;-64
2022/10/09 07:13:50;;;;;;;14.55;10.23;;;;;;;22.46;44.36;100376.03;1756431;81;21641;-65
2022/10/09 07:16:23;;;;;;;16.40;10.98;;;;;;;22.49;43.94;100371.73;1756757;81;21092;-66
2022/10/09 07:18:50;;;;;;;19.77;11.95;;;;;;;22.53;43.18;100375.87;1756116;81;21087;-64
2022/10/09 07:21:18;;;;;;;17.65;11.43;;;;;;;22.55;43.78;100372.08;1756393;81;21544;-64
2022/10/09 07:23:45;;;;;;;26.48;12.43;;;;;;;22.55;43.64;100369.89;1756200;81;21013;-67
2022/10/09 07:26:18;;;;;;;14.35;10.65;;;;;;;22.42;43.99;100375.42;1756197;81;21102;-65
2022/10/09 07:28:45;;;;;;;21.25;12.30;;;;;;;22.30;44.12;100374.60;1755370;81;21140;-64
2022/10/09 07:31:12;;;;;;;24.52;15.48;;;;;;;22.40;44.15;100372.84;1756411;81;21804;-64
2022/10/09 07:33:40;;;;;;;24.95;15.18;;;;;;;22.62;43.86;100369.74;1756711;81;21037;-64
2022/10/09 07:36:09;;;;;;;25.77;14.35;;;;;;;22.94;43.38;100360.80;1756433;81;21531;-65
2022/10/09 07:38:37;;;;;;;21.68;13.15;;;;;;;23.12;42.73;100356.58;1756307;81;21052;-65
2022/10/09 07:41:07;;;;;;;18.77;12.40;;;;;;;22.68;42.87;100353.09;1756416;81;21092;-65
2022/10/09 07:43:36;;;;;;;16.87;11.75;;;;;;;22.40;43.53;100355.41;1765253;80;21203;-64
2022/10/09 07:46:05;;;;;;;25.92;12.20;;;;;;;22.09;43.90;100360.25;1755737;81;21572;-65
2022/10/09 07:48:33;;;;;;;20.72;10.63;;;;;;;21.98;44.03;100360.61;1755690;81;21017;-65
2022/10/09 07:51:14;;;;;;;17.73;10.63;;;;;;;21.84;44.44;100354.19;1729318;83;21080;-65
2022/10/09 07:53:41;;;;;;;20.57;10.78;;;;;;;21.84;44.65;100356.86;1737447;82;21567;-65
2022/10/09 07:56:20;;;;;;;22.60;12.35;;;;;;;21.94;44.85;100352.95;1737481;82;21132;-64
2022/10/09 07:58:57;;;;;;;18.05;12.05;;;;;;;21.81;44.50;100353.10;1737292;82;21045;-66
2022/10/09 08:01:24;;;;;;;21.55;11.88;;;;;;;21.56;45.07;100356.39;1723924;83;21474;-65
2022/10/09 08:03:50;;;;;;;23.87;13.28;;;;;;;21.43;45.13;100350.30;1779181;80;21576;-67
2022/10/09 08:06:17;;;;;;;20.20;12.37;;;;;;;21.33;46.12;100353.31;1779474;80;21080;-66
2022/10/09 08:08:51;;;;;;;18.00;10.88;;;;;;;21.36;45.97;100352.57;1779273;80;21052;-66
2022/10/09 08:11:19;;;;;;;24.00;11.57;;;;;;;21.55;46.12;100350.66;1778930;80;21021;-66
2022/10/09 08:13:48;;;;;;;16.67;10.08;;;;;;;22.11;45.48;100350.22;1778738;80;21079;-66
2022/10/09 08:16:15;;;;;;;19.05;10.45;;;;;;;22.37;44.19;100344.94;1778881;80;21013;-67
2022/10/09 08:18:43;;;;;;;22.58;10.50;;;;;;;22.51;43.16;100341.11;1778737;80;21056;-66
2022/10/09 08:21:13;;;;;;;16.55;9.40;;;;;;;22.57;43.60;100333.05;1778843;80;21779;-66
2022/10/09 08:23:41;;;;;;;23.02;11.75;;;;;;;22.55;43.31;100327.80;1778730;80;21032;-65
2022/10/09 08:26:17;;;;;;;16.15;8.88;;;;;;;22.44;44.19;100329.69;1778939;80;21037;-66
2022/10/09 08:28:50;;;;;;;20.12;9.00;;;;;;;22.30;43.46;100328.99;1778818;80;21017;-65
2022/10/09 08:31:17;;;;;;;18.40;8.18;;;;;;;22.32;43.33;100331.06;1779126;80;21084;-66
2022/10/09 08:33:46;;;;;;;19.80;8.58;;;;;;;22.71;42.61;100331.38;1778928;80;21537;-66
2022/10/09 08:36:18;;;;;;;20.88;8.40;;;;;;;23.25;41.79;100330.32;1778986;80;21069;-66
2022/10/09 08:38:42;;;;;;;15.83;7.33;;;;;;;23.85;39.98;100328.25;1778765;80;21068;-66
2022/10/09 08:41:33;;;;;;;22.22;8.65;;;;;;;24.18;38.11;100330.22;1778898;80;21079;-65
2022/10/09 08:44:26;;;;;;;20.20;8.93;;;;;;;24.39;38.02;100324.74;1775572;80;20993;-67
2022/10/09 08:47:35;;;;;;;20.68;8.55;;;;;;;24.43;37.84;100322.97;1747973;82;21808;-65
2022/10/09 08:50:10;;;;;;;16.05;7.30;;;;;;;24.67;37.89;100325.75;1748098;82;21076;-65
2022/10/09 08:52:52;;;;;;;18.95;8.18;;;;;;;25.03;36.71;100319.22;1748003;82;21076;-66
2022/10/09 08:55:28;;;;;;;16.10;8.40;;;;;;;25.19;35.89;100316.83;1718953;82;21064;-65
2022/10/09 08:57:56;;;;;;;23.67;10.48;;;;;;;25.32;36.48;100312.44;1748346;82;21092;-65
2022/10/09 09:00:27;;;;;;;18.07;7.28;;;;;;;25.70;35.64;100301.98;1747810;81;21197;-66
2022/10/09 09:03:28;;;;;;;15.85;5.92;;;;;;;25.86;34.57;100298.63;1747996;82;20997;-66
2022/10/09 09:06:31;;;;;;;17.17;5.72;;;;;;;25.84;34.77;100285.78;1747924;82;20998;-65
2022/10/09 09:09:20;;;;;;;13.22;5.80;;;;;;;26.08;33.60;100277.12;1747745;82;21615;-66
2022/10/09 09:12:14;;;;;;;13.10;5.22;;;;;;;26.42;32.35;100276.42;1748168;82;21034;-65
2022/10/09 09:15:10;;;;;;;11.88;5.67;;;;;;;26.57;32.17;100270.85;1747167;82;21144;-65
2022/10/09 09:17:56;;;;;;;10.20;5.78;;;;;;;26.56;31.90;100279.94;1746098;82;21563;-65
2022/10/09 09:20:50;;;;;;;9.28;4.22;;;;;;;26.65;31.71;100286.77;1747663;82;21032;-66
2022/10/09 09:23:19;;;;;;;7.55;3.83;;;;;;;26.91;30.32;100289.48;1738394;82;21537;-69
2022/10/09 09:25:47;;;;;;;9.55;4.03;;;;;;;26.96;30.86;100283.09;1747417;82;21069;-66
2022/10/09 09:28:33;;;;;;;8.85;3.90;;;;;;;27.16;30.32;100286.42;1747889;82;21984;-67
2022/10/09 09:31:07;;;;;;;10.23;3.47;;;;;;;27.49;29.73;100283.91;1719252;82;21014;-66
2022/10/09 09:33:53;;;;;;;13.48;4.00;;;;;;;27.31;29.63;100279.45;1747328;82;21029;-66
2022/10/09 09:36:37;;;;;;;6.45;3.40;;;;;;;26.80;30.19;100281.12;1748059;82;21091;-65
2022/10/09 09:39:04;;;;;;;7.70;3.42;;;;;;;26.20;30.99;100284.48;1747974;82;21501;-66
2022/10/09 09:41:31;;;;;;;7.10;3.35;;;;;;;25.89;31.17;100288.06;1748047;82;21635;-65
2022/10/09 09:43:57;;;;;;;7.12;3.45;;;;;;;25.73;31.35;100286.83;1750576;80;21557;-65
2022/10/09 09:46:28;;;;;;;10.65;3.95;;;;;;;25.57;31.77;100288.50;1778859;80;21013;-65
2022/10/09 09:48:55;;;;;;;8.90;3.55;;;;;;;25.60;32.27;100289.03;1778964;80;21537;-65
2022/10/09 09:51:28;;;;;;;7.47;3.95;;;;;;;25.71;31.63;100291.53;1779028;80;21608;-67
2022/10/09 09:54:09;;;;;;;5.47;3.40;;;;;;;25.67;32.18;100292.82;1778822;80;21138;-65
2022/10/09 09:56:40;;;;;;;10.00;4.08;;;;;;;25.84;31.19;100293.03;1777943;80;21112;-66
2022/10/09 09:59:09;;;;;;;9.58;3.85;;;;;;;25.94;31.72;100288.45;1778758;80;21100;-66
2022/10/09 10:01:35;;;;;;;6.62;3.52;;;;;;;25.96;31.32;100283.75;1749147;80;21551;-66
2022/10/09 10:04:03;;;;;;;10.15;3.90;;;;;;;26.21;31.52;100282.14;1778778;80;20997;-66
2022/10/09 10:06:34;;;;;;;7.33;3.83;;;;;;;26.54;31.08;100279.25;1778899;80;21249;-65
2022/10/09 10:09:16;;;;;;;6.75;2.95;;;;;;;27.08;30.23;100274.20;1778696;80;21052;-68
2022/10/09 10:11:58;;;;;;;9.55;2.95;;;;;;;27.29;28.19;100277.41;1778907;80;21108;-65
2022/10/09 10:14:25;;;;;;;5.78;2.92;;;;;;;27.51;28.21;100275.13;1778643;80;21053;-65
2022/10/09 10:16:54;;;;;;;4.65;2.65;;;;;;;27.66;27.71;100276.20;1778899;80;21049;-66
2022/10/09 10:19:33;;;;;;;9.85;3.10;;;;;;;27.68;27.11;100274.19;1778420;80;21106;-67
2022/10/09 10:22:02;;;;;;;8.55;2.95;;;;;;;27.60;27.34;100272.28;1778501;80;21009;-66
2022/10/09 10:24:42;;;;;;;4.55;3.17;;;;;;;27.68;27.77;100273.34;1778620;80;21044;-66
2022/10/09 10:27:14;;;;;;;4.80;2.85;;;;;;;27.70;27.71;100265.88;1778774;80;21587;-68
2022/10/09 10:29:42;;;;;;;4.10;2.87;;;;;;;27.81;27.96;100261.04;1777587;80;21528;-68
2022/10/09 10:32:35;;;;;;;7.42;3.17;;;;;;;28.05;27.79;100265.34;1778783;80;21124;-66
2022/10/09 10:35:07;;;;;;;10.50;3.65;;;;;;;28.19;27.57;100261.45;1778553;80;21495;-66
2022/10/09 10:38:06;;;;;;;10.60;3.50;;;;;;;28.36;27.07;100257.39;1778645;80;21049;-65
2022/10/09 10:41:10;;;;;;;6.00;3.37;;;;;;;28.32;26.98;100251.97;1778458;80;21027;-65
2022/10/09 10:43:48;;;;;;;7.08;3.77;;;;;;;28.39;27.57;100250.27;1742031;82;21088;-66
2022/10/09 10:46:38;;;;;;;10.08;4.17;;;;;;;28.38;27.64;100256.72;1715283;82;21044;-65
2022/10/09 10:49:06;;;;;;;6.53;4.30;;;;;;;28.16;27.85;100253.67;1747556;82;21061;-66
2022/10/09 10:52:06;;;;;;;20.05;5.17;;;;;;;27.76;28.48;100249.00;1694799;82;21017;-66
2022/10/09 10:54:44;;;;;;;10.98;3.77;;;;;;;27.68;28.52;100247.13;1747581;82;21041;-66
2022/10/09 10:57:59;;;;;;;7.37;3.90;;;;;;;27.52;28.63;100242.52;1746952;82;21036;-65
2022/10/09 11:00:27;;;;;;;11.57;4.95;;;;;;;27.19;29.05;100246.89;1747986;81;21325;-67
2022/10/09 11:03:20;;;;;;;11.73;5.12;;;;;;;26.56;30.79;100240.78;1753285;81;21044;-66
2022/10/09 11:06:04;;;;;;;12.28;4.83;;;;;;;26.32;30.87;100235.18;1746931;81;21040;-66
2022/10/09 11:08:37;;;;;;;10.30;4.72;;;;;;;26.13;31.41;100230.77;1753432;81;21028;-66
2022/10/09 11:11:16;;;;;;;11.35;5.08;;;;;;;25.90;31.55;100230.39;1753374;81;21119;-65
2022/10/09 11:14:04;;;;;;;8.60;4.75;;;;;;;25.38;32.09;100236.88;1753394;81;21220;-64
2022/10/09 11:17:00;;;;;;;12.50;4.83;;;;;;;24.96;32.98;100235.94;1739240;81;21041;-66
2022/10/09 11:19:50;;;;;;;10.75;4.90;;;;;;;24.66;33.84;100232.02;1753227;81;21096;-65
2022/10/09 11:22:22;;;;;;;9.03;4.40;;;;;;;24.33;34.22;100230.59;1753650;81;21052;-66
2022/10/09 11:25:04;;;;;;;6.95;4.83;;;;;;;24.04;34.53;100226.56;1753472;81;21048;-65
2022/10/09 11:27:39;;;;;;;8.50;4.90;;;;;;;23.70;35.00;100223.41;1748752;81;21148;-65
2022/10/09 11:30:14;;;;;;;9.40;4.60;;;;;;;23.42;35.70;100227.21;1741712;81;21461;-65
2022/10/09 11:33:34;;;;;;;13.18;5.08;;;;;;;23.21;36.22;100226.82;1753583;81;20998;-66
2022/10/09 11:36:26;;;;;;;8.65;4.55;;;;;;;22.98;36.46;100230.63;1753527;81;21008;-65